ORD weather

Public forecast

Using degrees Fahrenheit for public forecast. Weather courtesy of forecast.io.

Current aviation weather report (METAR) for Chicago O'Hare International Airport

Retrieved 2020/08/13 07:51 UTC (45 minutes ago):

KORD 130751Z 01003KT 10SM FEW250 22/19 A3009 RMK AO2 SLP184 T02220189

Aviation forecast (TAF) for Chicago O'Hare International Airport

Retrieved 2020/08/13 06:22 UTC (2 hours ago):

TAF KORD 130520Z 1306/1412 08008KT P6SM FEW040 SCT250